Time;durP1;ratioP1;P1;durP2;ratioP2;P2;SDS_P1;SDS_P2;PMS_P1;PMS_P2;Temp;Humidity;BMP_temperature;BMP_pressure;BME280_temperature;BME280_humidity;BME280_pressure;Samples;Min_cycle;Max_cycle;Signal;HPM_P1;HPM_P2
2022/01/05 00:02:04;;;;;;;3.17;2.97;;;;;;;6.16;100.00;94815.84;5006251;28;20169;-57
2022/01/05 00:04:33;;;;;;;3.72;3.53;;;;;;;6.13;100.00;94816.16;5008744;28;20152;-58
2022/01/05 00:07:02;;;;;;;3.20;3.00;;;;;;;6.16;100.00;94816.66;5006167;28;20073;-55
2022/01/05 00:09:30;;;;;;;3.10;2.90;;;;;;;5.97;100.00;94826.56;5006513;28;20053;-57
2022/01/05 00:12:00;;;;;;;3.15;2.95;;;;;;;6.06;100.00;94834.28;5011325;28;20088;-55
2022/01/05 00:14:28;;;;;;;3.20;3.00;;;;;;;6.12;100.00;94838.03;5005757;28;20073;-57
2022/01/05 00:16:58;;;;;;;2.80;2.70;;;;;;;5.96;100.00;94833.59;5004455;28;20516;-57
2022/01/05 00:19:27;;;;;;;3.10;2.90;;;;;;;6.00;100.00;94826.25;5011663;28;20385;-56
2022/01/05 00:21:55;;;;;;;3.00;2.83;;;;;;;5.86;100.00;94836.28;5010408;28;20558;-55
2022/01/05 00:24:24;;;;;;;3.00;2.80;;;;;;;5.68;100.00;94840.75;5008942;28;20077;-57
2022/01/05 00:26:53;;;;;;;3.55;3.35;;;;;;;5.70;100.00;94852.69;5004688;28;20546;-57
2022/01/05 00:29:21;;;;;;;3.17;2.97;;;;;;;5.63;100.00;94856.06;5007577;28;20448;-56
2022/01/05 00:31:50;;;;;;;3.05;2.88;;;;;;;5.55;100.00;94863.88;5007677;28;20074;-60
2022/01/05 00:34:19;;;;;;;4.15;3.10;;;;;;;5.55;100.00;94872.53;5010810;28;20076;-57
2022/01/05 00:36:48;;;;;;;2.87;2.77;;;;;;;5.28;100.00;94877.88;5006289;28;20073;-59
2022/01/05 00:39:16;;;;;;;2.90;2.80;;;;;;;5.17;100.00;94877.16;5010817;28;20844;-55
2022/01/05 00:41:45;;;;;;;3.22;3.03;;;;;;;5.23;100.00;94883.56;5009498;28;20546;-56
2022/01/05 00:44:14;;;;;;;2.85;2.75;;;;;;;5.11;100.00;94888.19;5003049;28;20068;-58
2022/01/05 00:46:42;;;;;;;3.03;2.85;;;;;;;5.17;100.00;94887.59;5004478;28;20085;-57
2022/01/05 00:49:10;;;;;;;3.33;3.13;;;;;;;5.16;100.00;94891.19;5006390;28;20073;-57
2022/01/05 00:51:40;;;;;;;3.33;3.00;;;;;;;5.13;100.00;94894.09;5005267;28;20076;-61
2022/01/05 00:54:09;;;;;;;3.20;3.00;;;;;;;4.92;100.00;94899.63;5004417;28;20066;-56
2022/01/05 00:56:37;;;;;;;3.20;3.00;;;;;;;4.92;100.00;94894.41;5005429;28;20065;-55
2022/01/05 00:59:05;;;;;;;3.30;3.10;;;;;;;4.84;100.00;94891.69;5005423;28;20484;-56
2022/01/05 01:01:34;;;;;;;3.40;3.20;;;;;;;4.80;100.00;94889.53;5006492;28;20249;-59
2022/01/05 01:04:03;;;;;;;3.53;3.33;;;;;;;4.79;100.00;94898.34;5010463;28;20072;-58
2022/01/05 01:06:31;;;;;;;3.67;3.40;;;;;;;4.81;100.00;94893.78;5004752;28;20072;-59
2022/01/05 01:09:01;;;;;;;3.85;3.65;;;;;;;4.95;100.00;94888.03;5006662;28;20074;-57
2022/01/05 01:11:30;;;;;;;3.60;3.40;;;;;;;4.90;100.00;94896.31;5005118;28;20080;-62
2022/01/05 01:13:58;;;;;;;3.80;3.60;;;;;;;4.96;100.00;94905.38;5003717;28;20085;-59
2022/01/05 01:16:27;;;;;;;3.60;3.35;;;;;;;4.80;100.00;94899.97;5001725;28;20101;-58
2022/01/05 01:18:55;;;;;;;4.00;3.70;;;;;;;4.88;100.00;94900.84;5006293;28;20085;-61
2022/01/05 01:21:23;;;;;;;4.20;3.90;;;;;;;4.97;100.00;94902.59;5004700;28;20566;-57
2022/01/05 01:23:55;;;;;;;4.10;3.80;;;;;;;4.85;100.00;94916.00;5003281;28;20177;-56
2022/01/05 01:26:28;;;;;;;4.20;3.90;;;;;;;4.86;100.00;94915.06;5005653;28;20486;-55
2022/01/05 01:28:57;;;;;;;4.05;3.75;;;;;;;5.04;100.00;94915.88;5002883;28;20057;-52
2022/01/05 01:31:25;;;;;;;4.30;4.00;;;;;;;5.10;100.00;94907.47;5009532;28;20061;-60
2022/01/05 01:33:54;;;;;;;3.83;3.53;;;;;;;4.92;100.00;94920.50;5006139;28;20077;-56
2022/01/05 01:36:23;;;;;;;3.70;3.50;;;;;;;4.87;100.00;94922.72;5004628;28;20066;-58
2022/01/05 01:38:51;;;;;;;3.97;3.70;;;;;;;4.66;100.00;94925.59;5004076;28;20071;-55
2022/01/05 01:41:20;;;;;;;3.72;3.53;;;;;;;4.88;100.00;94921.75;5005769;28;20061;-59
2022/01/05 01:43:49;;;;;;;3.35;3.15;;;;;;;4.82;100.00;94924.13;5002749;28;20766;-60
2022/01/05 01:46:18;;;;;;;3.40;3.20;;;;;;;4.91;100.00;94931.09;5007833;28;20461;-60
2022/01/05 01:48:46;;;;;;;3.65;3.45;;;;;;;4.99;100.00;94929.41;5004987;28;20142;-59
2022/01/05 01:51:16;;;;;;;3.30;3.10;;;;;;;5.09;100.00;94921.47;5002892;28;20116;-55
2022/01/05 01:53:45;;;;;;;3.35;3.15;;;;;;;4.96;100.00;94923.66;5006287;28;20069;-60
2022/01/05 01:56:14;;;;;;;3.10;2.90;;;;;;;4.79;100.00;94917.44;5002890;28;20073;-59
2022/01/05 01:58:44;;;;;;;3.40;3.20;;;;;;;5.06;100.00;94921.78;5006534;28;20655;-58
2022/01/05 02:01:14;;;;;;;3.50;3.30;;;;;;;5.19;100.00;94917.00;5007313;28;20081;-60
2022/01/05 02:03:43;;;;;;;3.47;3.28;;;;;;;5.03;100.00;94918.66;5007787;28;20061;-53
2022/01/05 02:06:12;;;;;;;4.75;3.30;;;;;;;4.80;100.00;94913.84;5003009;28;20092;-60
2022/01/05 02:08:40;;;;;;;3.55;3.35;;;;;;;4.83;100.00;94913.56;5008603;28;20540;-61
2022/01/05 02:11:11;;;;;;;5.07;3.47;;;;;;;5.07;100.00;94920.81;5008183;28;20062;-61
2022/01/05 02:13:39;;;;;;;3.67;3.47;;;;;;;4.91;100.00;94918.03;5011079;28;20471;-57
2022/01/05 02:16:08;;;;;;;3.50;3.30;;;;;;;5.06;100.00;94920.94;5009198;28;20089;-61
2022/01/05 02:21:26;;;;;;;3.50;3.30;;;;;;;4.91;100.00;94916.25;5005288;28;20065;-60
2022/01/05 02:23:55;;;;;;;3.50;3.30;;;;;;;4.80;100.00;94931.31;5006067;28;20073;-60
2022/01/05 02:26:23;;;;;;;3.60;3.30;;;;;;;4.79;100.00;94929.69;5008300;28;20070;-60
2022/01/05 02:28:52;;;;;;;3.95;3.75;;;;;;;4.89;100.00;94933.88;5007125;28;20084;-57
2022/01/05 02:31:21;;;;;;;3.67;3.47;;;;;;;4.98;100.00;94932.13;5010358;28;20049;-56
2022/01/05 02:33:49;;;;;;;4.03;3.72;;;;;;;4.81;100.00;94938.97;5006070;28;20448;-55
2022/01/05 02:36:20;;;;;;;3.63;3.42;;;;;;;4.79;100.00;94934.91;5006194;28;20046;-52
2022/01/05 02:38:50;;;;;;;;;;;;;;;4.90;100.00;94924.22;5008652;28;20044;-59
2022/01/05 02:41:19;;;;;;;3.55;3.35;;;;;;;4.78;100.00;94928.81;5010617;28;19996;-56
2022/01/05 02:43:48;;;;;;;3.55;3.35;;;;;;;4.84;100.00;94933.47;5009221;28;20076;-58
2022/01/05 02:46:18;;;;;;;3.30;3.10;;;;;;;4.71;100.00;94930.38;5009625;28;20084;-60
2022/01/05 02:48:47;;;;;;;3.47;3.28;;;;;;;4.69;100.00;94940.16;5005460;28;20065;-60
2022/01/05 02:51:16;;;;;;;3.40;3.20;;;;;;;4.60;100.00;94926.19;5008068;28;20472;-54
2022/01/05 02:53:44;;;;;;;3.67;3.47;;;;;;;4.81;100.00;94931.16;5008474;28;20074;-58
2022/01/05 02:56:14;;;;;;;3.30;3.10;;;;;;;4.78;100.00;94931.44;5006450;28;20551;-62
2022/01/05 02:58:42;;;;;;;3.65;3.45;;;;;;;5.02;100.00;94930.06;5006519;28;20086;-62
2022/01/05 03:01:11;;;;;;;3.58;3.38;;;;;;;4.88;100.00;94939.22;5009542;28;20066;-60
2022/01/05 03:03:39;;;;;;;3.20;3.00;;;;;;;4.73;100.00;94937.13;5013475;28;20065;-60
2022/01/05 03:06:08;;;;;;;3.38;3.17;;;;;;;4.84;100.00;94933.47;5005090;28;20069;-62
2022/01/05 03:08:36;;;;;;;3.45;3.25;;;;;;;4.75;100.00;94932.56;5006379;28;20062;-62
2022/01/05 03:11:05;;;;;;;3.20;3.00;;;;;;;4.69;100.00;94934.94;5005668;28;20069;-59
2022/01/05 03:13:34;;;;;;;3.53;3.33;;;;;;;4.92;100.00;94927.50;5005144;28;20084;-60
2022/01/05 03:16:03;;;;;;;3.10;2.90;;;;;;;4.80;100.00;94931.31;5007426;28;20508;-58
2022/01/05 03:18:31;;;;;;;3.40;3.10;;;;;;;4.84;100.00;94925.63;5007700;28;20066;-60
2022/01/05 03:21:00;;;;;;;3.83;3.63;;;;;;;5.03;100.00;94929.09;5005607;28;20062;-61
2022/01/05 03:23:28;;;;;;;3.50;3.30;;;;;;;5.10;100.00;94938.00;5000061;28;20076;-61
2022/01/05 03:25:57;;;;;;;3.50;3.30;;;;;;;5.03;100.00;94934.34;5006771;28;20588;-58
2022/01/05 03:28:25;;;;;;;4.35;3.53;;;;;;;5.08;100.00;94932.91;5011929;28;20084;-59
2022/01/05 03:30:55;;;;;;;3.40;3.20;;;;;;;4.88;100.00;94929.59;5006581;28;20088;-52
2022/01/05 03:33:24;;;;;;;3.28;3.08;;;;;;;4.79;100.00;94935.72;5005074;28;20474;-61
2022/01/05 03:35:53;;;;;;;3.53;3.22;;;;;;;4.99;100.00;94945.06;5013870;28;20579;-61
2022/01/05 03:38:21;;;;;;;3.40;3.20;;;;;;;4.82;100.00;94938.03;5011343;28;20081;-56
2022/01/05 03:40:49;;;;;;;3.80;3.50;;;;;;;4.70;100.00;94937.41;5004920;28;20186;-56
2022/01/05 03:43:18;;;;;;;3.50;3.30;;;;;;;5.00;100.00;94943.28;5005029;28;20081;-57
2022/01/05 03:45:47;;;;;;;3.38;3.10;;;;;;;4.71;100.00;94946.06;5001423;28;20069;-58
2022/01/05 03:48:18;;;;;;;5.80;3.23;;;;;;;4.71;100.00;94941.69;5005368;28;20525;-56
2022/01/05 03:50:48;;;;;;;3.70;3.50;;;;;;;4.90;100.00;94943.34;5007780;28;20089;-58
2022/01/05 03:53:16;;;;;;;3.50;3.20;;;;;;;4.62;100.00;94942.53;5002402;28;20465;-59
2022/01/05 03:55:46;;;;;;;3.40;3.20;;;;;;;4.64;100.00;94943.19;5009236;28;20126;-56
2022/01/05 03:58:15;;;;;;;3.55;3.33;;;;;;;4.57;100.00;94931.69;5016123;28;20088;-59
2022/01/05 04:00:46;;;;;;;3.70;3.50;;;;;;;4.89;100.00;94946.09;5017536;28;20076;-58
2022/01/05 04:03:17;;;;;;;2.92;2.80;;;;;;;4.81;100.00;94944.19;5011596;28;20072;-61
2022/01/05 04:05:45;;;;;;;3.40;3.20;;;;;;;4.63;100.00;94948.56;5008306;28;20065;-62
2022/01/05 04:08:14;;;;;;;3.03;2.83;;;;;;;4.72;100.00;94947.72;5012649;28;20073;-61
2022/01/05 04:10:43;;;;;;;3.10;2.90;;;;;;;4.99;100.00;94955.53;5014625;28;20817;-58
2022/01/05 04:13:11;;;;;;;2.95;2.80;;;;;;;4.75;100.00;94952.66;5008980;28;20738;-62
2022/01/05 04:15:40;;;;;;;3.10;2.90;;;;;;;4.82;100.00;94956.31;5005487;28;20065;-61
2022/01/05 04:18:08;;;;;;;3.30;3.10;;;;;;;4.93;100.00;94947.44;5004836;28;20058;-61
2022/01/05 04:20:38;;;;;;;3.10;2.90;;;;;;;4.79;100.00;94946.16;5005733;28;20067;-59
2022/01/05 04:23:07;;;;;;;2.90;2.80;;;;;;;4.80;100.00;94957.44;5005165;28;20073;-61
2022/01/05 04:25:36;;;;;;;3.20;3.00;;;;;;;4.84;100.00;94954.34;5005779;28;21116;-60
2022/01/05 04:28:05;;;;;;;2.95;2.85;;;;;;;4.72;100.00;94955.56;5007307;28;20069;-62
2022/01/05 04:30:33;;;;;;;3.15;3.05;;;;;;;4.86;100.00;94957.66;5006977;28;20058;-61
2022/01/05 04:33:01;;;;;;;3.20;2.92;;;;;;;4.74;100.00;94951.81;5021063;28;20079;-62
2022/01/05 04:35:52;;;;;;;2.90;2.80;;;;;;;4.74;100.00;94956.22;5006224;28;20088;-61
2022/01/05 04:38:20;;;;;;;4.25;3.92;;;;;;;4.63;100.00;94943.34;5009080;28;20475;-62
2022/01/05 04:40:48;;;;;;;3.47;2.80;;;;;;;4.80;100.00;94939.16;5011334;28;20065;-63
2022/01/05 04:43:17;;;;;;;2.90;2.80;;;;;;;4.55;100.00;94943.28;5007444;28;20092;-62
2022/01/05 04:45:45;;;;;;;2.90;2.80;;;;;;;4.75;100.00;94937.78;5006236;28;20610;-62
2022/01/05 04:48:14;;;;;;;3.05;2.85;;;;;;;4.75;100.00;94943.03;5005827;28;20065;-63
2022/01/05 04:50:42;;;;;;;3.08;2.90;;;;;;;4.83;100.00;94947.50;5002440;28;20078;-62
2022/01/05 04:53:13;;;;;;;3.10;2.90;;;;;;;4.56;100.00;94932.69;5003904;28;20079;-61
2022/01/05 04:55:41;;;;;;;;;;;;;;;4.85;100.00;94929.06;5008815;28;20085;-59
2022/01/05 04:58:09;;;;;;;3.00;2.90;;;;;;;4.75;100.00;94939.59;5005959;28;19960;-62
2022/01/05 05:00:38;;;;;;;3.72;3.53;;;;;;;4.73;100.00;94942.34;5003169;28;20066;-61
2022/01/05 05:03:06;;;;;;;3.00;2.80;;;;;;;4.81;100.00;94935.56;5006872;28;20073;-62
2022/01/05 05:05:35;;;;;;;3.10;2.90;;;;;;;4.76;100.00;94938.63;5005656;28;20061;-63
2022/01/05 05:08:04;;;;;;;2.97;2.88;;;;;;;4.80;100.00;94942.56;5003049;28;20068;-62
2022/01/05 05:10:34;;;;;;;3.20;2.90;;;;;;;4.78;100.00;94948.91;5003602;28;20091;-56
2022/01/05 05:13:08;;;;;;;4.03;3.72;;;;;;;4.69;100.00;94958.44;5006524;28;20077;-62
2022/01/05 05:15:36;;;;;;;3.20;3.00;;;;;;;4.83;100.00;94947.50;5004113;28;20080;-62
2022/01/05 05:18:05;;;;;;;2.83;2.72;;;;;;;4.65;100.00;94942.25;5008844;28;20069;-62
2022/01/05 05:20:34;;;;;;;3.20;3.00;;;;;;;4.75;100.00;94942.19;5005862;28;20072;-64
2022/01/05 05:23:03;;;;;;;2.90;2.80;;;;;;;4.72;100.00;94945.91;5014149;28;20081;-59
2022/01/05 05:25:31;;;;;;;3.10;2.90;;;;;;;4.53;100.00;94939.00;5010978;28;20091;-62
2022/01/05 05:28:01;;;;;;;3.17;2.85;;;;;;;4.85;100.00;94949.97;5007267;28;20088;-61
2022/01/05 05:30:34;;;;;;;3.00;2.90;;;;;;;4.71;100.00;94949.50;5010683;28;20064;-61
2022/01/05 05:33:03;;;;;;;3.17;2.97;;;;;;;4.95;100.00;94943.69;5010819;28;20065;-62
2022/01/05 05:35:32;;;;;;;3.22;3.03;;;;;;;4.90;100.00;94945.13;5009277;28;20069;-62
2022/01/05 05:38:00;;;;;;;2.90;2.80;;;;;;;4.97;100.00;94947.00;5005331;28;20074;-61
2022/01/05 05:40:29;;;;;;;3.20;3.00;;;;;;;4.92;100.00;94954.47;5013923;28;20077;-61
2022/01/05 05:42:57;;;;;;;3.05;2.90;;;;;;;4.60;100.00;94951.47;5006784;28;20081;-60
2022/01/05 05:45:27;;;;;;;3.00;2.90;;;;;;;4.70;100.00;94962.69;5015193;28;20562;-61
2022/01/05 05:47:56;;;;;;;3.00;2.80;;;;;;;4.59;100.00;94949.84;5008473;28;20065;-62
2022/01/05 05:50:24;;;;;;;3.05;2.90;;;;;;;4.64;100.00;94945.00;4999136;28;20068;-62
2022/01/05 05:52:53;;;;;;;3.20;3.00;;;;;;;4.45;100.00;94956.38;5004469;28;20413;-63
2022/01/05 05:55:21;;;;;;;3.22;3.03;;;;;;;4.56;100.00;94953.56;5015023;28;20085;-62
2022/01/05 05:57:49;;;;;;;3.10;3.00;;;;;;;4.68;100.00;94959.38;5006338;28;20147;-61
2022/01/05 06:00:18;;;;;;;2.70;2.50;;;;;;;4.70;100.00;94962.69;5000303;28;20445;-62
2022/01/05 06:02:48;;;;;;;3.70;2.55;;;;;;;4.66;100.00;94974.41;5002907;28;20073;-62
2022/01/05 06:05:17;;;;;;;2.67;2.40;;;;;;;4.69;100.00;94974.94;5009074;28;20069;-61
2022/01/05 06:07:45;;;;;;;2.90;2.80;;;;;;;4.59;100.00;94976.75;5004285;28;20080;-59
2022/01/05 06:10:14;;;;;;;2.70;2.40;;;;;;;4.60;100.00;94973.19;5004144;28;20138;-61
2022/01/05 06:12:42;;;;;;;2.60;2.50;;;;;;;4.67;100.00;94973.41;5003517;28;20645;-57
2022/01/05 06:15:11;;;;;;;2.60;2.50;;;;;;;4.59;100.00;94970.72;5000347;28;20670;-61
2022/01/05 06:17:39;;;;;;;2.50;2.40;;;;;;;4.56;100.00;94973.63;5002853;28;20482;-62
2022/01/05 06:20:10;;;;;;;2.97;2.72;;;;;;;4.76;100.00;94968.16;5001970;28;20072;-62
2022/01/05 06:22:40;;;;;;;2.60;2.50;;;;;;;4.74;100.00;94977.09;5010576;28;20710;-61
2022/01/05 06:25:10;;;;;;;2.95;2.85;;;;;;;4.52;100.00;94947.81;5008053;28;20077;-60
2022/01/05 06:27:39;;;;;;;2.60;2.50;;;;;;;4.58;100.00;94974.31;5004843;28;20065;-59
2022/01/05 06:30:09;;;;;;;2.80;2.60;;;;;;;4.73;100.00;94973.66;5006947;28;20077;-62
2022/01/05 06:32:41;;;;;;;;;;;;;;;4.62;100.00;94981.69;5001887;28;20077;-60
2022/01/05 06:35:12;;;;;;;2.40;2.30;;;;;;;4.82;100.00;94977.22;5008309;28;20389;-60
2022/01/05 06:37:40;;;;;;;2.75;2.63;;;;;;;4.56;100.00;94961.38;5010578;28;20073;-61
2022/01/05 06:40:09;;;;;;;2.83;2.58;;;;;;;4.61;100.00;94967.00;5015012;28;20539;-62
2022/01/05 06:42:37;;;;;;;2.63;2.53;;;;;;;4.65;100.00;94954.50;5004755;28;20562;-61
2022/01/05 06:45:07;;;;;;;2.67;2.58;;;;;;;4.65;100.00;94957.09;5008790;28;20084;-60
2022/01/05 06:47:35;;;;;;;2.50;2.40;;;;;;;4.73;100.00;94954.56;5001069;28;20088;-57
2022/01/05 06:50:04;;;;;;;2.60;2.50;;;;;;;4.64;100.00;94961.47;5002905;28;20528;-59
2022/01/05 06:52:34;;;;;;;2.53;2.42;;;;;;;4.68;100.00;94962.00;5004252;28;20081;-61
2022/01/05 06:55:02;;;;;;;2.88;2.70;;;;;;;4.89;100.00;94969.63;5005686;28;20089;-59
2022/01/05 06:57:31;;;;;;;2.53;2.42;;;;;;;4.84;100.00;94964.81;5010340;28;20069;-61
2022/01/05 06:59:59;;;;;;;2.55;2.45;;;;;;;4.74;100.00;94969.25;5004632;28;20084;-62
2022/01/05 07:02:28;;;;;;;2.70;2.60;;;;;;;4.66;100.00;94969.19;5007773;28;20101;-62
2022/01/05 07:04:56;;;;;;;2.80;2.60;;;;;;;4.72;100.00;94979.03;5004244;28;20696;-61
2022/01/05 07:07:28;;;;;;;2.80;2.60;;;;;;;4.81;100.00;94982.56;5007282;28;20099;-59
2022/01/05 07:09:58;;;;;;;2.60;2.50;;;;;;;4.79;100.00;94980.09;5007195;28;20085;-62
2022/01/05 07:12:26;;;;;;;2.50;2.40;;;;;;;4.82;100.00;94992.03;5009095;28;20106;-61
2022/01/05 07:14:55;;;;;;;2.60;2.40;;;;;;;4.98;100.00;94995.66;5007417;28;20053;-62
2022/01/05 07:17:23;;;;;;;2.40;2.30;;;;;;;4.86;100.00;94994.22;5007033;28;20072;-61
2022/01/05 07:19:52;;;;;;;2.50;2.40;;;;;;;4.88;100.00;94974.00;5006545;28;20070;-62
2022/01/05 07:22:20;;;;;;;2.92;2.83;;;;;;;4.73;100.00;94984.09;5008203;28;20093;-61
2022/01/05 07:24:48;;;;;;;2.70;2.60;;;;;;;4.86;100.00;94994.22;5003548;28;20621;-58
2022/01/05 07:27:18;;;;;;;2.50;2.40;;;;;;;4.85;100.00;95003.03;5009613;28;20073;-59
2022/01/05 07:29:47;;;;;;;2.60;2.50;;;;;;;5.06;100.00;95018.47;5011274;28;20092;-61
2022/01/05 07:32:15;;;;;;;2.50;2.40;;;;;;;4.91;100.00;95018.09;5008440;28;20077;-61
2022/01/05 07:34:43;;;;;;;2.53;2.42;;;;;;;4.89;100.00;95027.06;5007652;28;20053;-62
2022/01/05 07:37:12;;;;;;;2.60;2.50;;;;;;;4.94;100.00;95003.94;5010486;28;20088;-62
2022/01/05 07:39:40;;;;;;;2.60;2.40;;;;;;;4.99;100.00;95030.47;5006020;28;20065;-57
2022/01/05 07:42:09;;;;;;;2.45;2.35;;;;;;;4.81;100.00;95014.72;5004958;28;20066;-59
2022/01/05 07:44:39;;;;;;;2.40;2.30;;;;;;;5.13;100.00;95021.31;5003644;28;20081;-61
2022/01/05 07:47:08;;;;;;;2.50;2.40;;;;;;;5.12;100.00;95033.53;5005938;28;20081;-61
2022/01/05 07:49:38;;;;;;;2.40;2.30;;;;;;;4.98;100.00;95037.44;5009855;28;20082;-61
2022/01/05 07:52:07;;;;;;;2.60;2.50;;;;;;;5.06;100.00;95036.75;5011401;28;20089;-61
2022/01/05 07:54:36;;;;;;;2.78;2.60;;;;;;;5.05;100.00;95045.53;5004025;28;20452;-58
2022/01/05 07:57:05;;;;;;;2.65;2.45;;;;;;;4.95;100.00;95042.97;5009288;28;20078;-61
2022/01/05 07:59:34;;;;;;;2.40;2.30;;;;;;;5.10;100.00;95055.56;5003355;28;20807;-59
2022/01/05 08:02:04;;;;;;;2.45;2.35;;;;;;;4.93;100.00;95046.69;5005221;28;20078;-61
2022/01/05 08:04:33;;;;;;;2.60;2.50;;;;;;;5.11;100.00;95054.59;5004170;28;20084;-62
2022/01/05 08:07:01;;;;;;;2.78;2.58;;;;;;;5.07;100.00;95059.28;5016064;28;20077;-62
2022/01/05 08:09:30;;;;;;;2.70;2.60;;;;;;;4.97;100.00;95037.59;5006492;28;20133;-58
2022/01/05 08:11:58;;;;;;;3.25;2.40;;;;;;;5.02;100.00;95060.66;5006540;28;20791;-61
2022/01/05 08:14:27;;;;;;;2.50;2.40;;;;;;;5.18;100.00;95064.28;5006114;28;20073;-60
2022/01/05 08:16:55;;;;;;;2.40;2.30;;;;;;;4.96;100.00;95059.47;5005859;28;20131;-63
2022/01/05 08:19:25;;;;;;;2.40;2.30;;;;;;;5.10;100.00;95071.22;5008554;28;20085;-60
2022/01/05 08:21:53;;;;;;;2.50;2.40;;;;;;;5.05;100.00;95076.88;5001086;28;20345;-61
2022/01/05 08:24:21;;;;;;;2.40;2.30;;;;;;;5.05;100.00;95082.09;5005148;28;20119;-61
2022/01/05 08:26:50;;;;;;;2.40;2.30;;;;;;;5.17;100.00;95087.97;5014733;28;20221;-60
2022/01/05 08:29:18;;;;;;;2.40;2.30;;;;;;;5.14;100.00;95088.25;5008761;28;20088;-62
2022/01/05 08:31:47;;;;;;;2.60;2.50;;;;;;;5.04;100.00;95097.94;5004015;28;20068;-62
2022/01/05 08:34:15;;;;;;;2.40;2.30;;;;;;;5.06;100.00;95101.19;5009104;28;20535;-63
2022/01/05 08:36:45;;;;;;;2.53;2.42;;;;;;;5.17;100.00;95101.84;5003424;28;20065;-59
2022/01/05 08:39:14;;;;;;;2.50;2.40;;;;;;;5.00;100.00;95110.47;5004184;28;20068;-62
2022/01/05 08:41:42;;;;;;;2.40;2.30;;;;;;;5.11;100.00;95125.13;5008993;28;20888;-60
2022/01/05 08:44:11;;;;;;;2.60;2.40;;;;;;;5.13;100.00;95128.44;5003999;28;20069;-62
2022/01/05 08:46:40;;;;;;;2.40;2.30;;;;;;;5.07;100.00;95135.03;5005328;28;20088;-59
2022/01/05 08:49:08;;;;;;;2.50;2.40;;;;;;;5.07;100.00;95149.91;5012114;28;20081;-56
2022/01/05 08:51:38;;;;;;;2.60;2.50;;;;;;;5.03;100.00;95172.06;5004399;28;20069;-58
2022/01/05 08:54:08;;;;;;;2.40;2.30;;;;;;;5.09;100.00;95169.66;5006414;28;20073;-54
2022/01/05 08:56:37;;;;;;;2.85;2.75;;;;;;;5.00;100.00;95170.53;5013272;28;20072;-60
2022/01/05 08:59:06;;;;;;;2.60;2.50;;;;;;;4.89;100.00;95176.75;5003035;28;20068;-62
2022/01/05 09:01:34;;;;;;;2.80;2.70;;;;;;;4.80;100.00;95179.38;5003598;28;20074;-61
2022/01/05 09:04:03;;;;;;;2.75;2.65;;;;;;;4.80;100.00;95185.44;5007254;28;20917;-60
2022/01/05 09:06:32;;;;;;;2.50;2.40;;;;;;;4.84;100.00;95191.19;5001277;28;20077;-61
2022/01/05 09:09:00;;;;;;;2.75;2.55;;;;;;;4.87;100.00;95186.50;5000359;28;20080;-54
2022/01/05 09:11:30;;;;;;;2.95;2.50;;;;;;;4.93;100.00;95178.13;5018312;28;20705;-61
2022/01/05 09:13:58;;;;;;;2.90;2.80;;;;;;;4.68;100.00;95191.75;5000783;28;20068;-59
2022/01/05 09:16:26;;;;;;;2.63;2.53;;;;;;;4.85;100.00;95196.28;5001997;28;20523;-58
2022/01/05 09:18:55;;;;;;;2.70;2.60;;;;;;;4.79;100.00;95199.47;5007045;28;20092;-62
2022/01/05 09:21:23;;;;;;;2.50;2.40;;;;;;;4.84;100.00;95218.13;5007480;28;20076;-63
2022/01/05 09:23:52;;;;;;;2.80;2.70;;;;;;;4.73;100.00;95207.84;5008121;28;20066;-62
2022/01/05 09:26:20;;;;;;;2.90;2.70;;;;;;;4.76;100.00;95223.25;5005002;28;20460;-60
2022/01/05 09:28:50;;;;;;;2.80;2.60;;;;;;;4.67;100.00;95234.50;5001936;28;20580;-58
2022/01/05 09:31:18;;;;;;;3.03;2.83;;;;;;;4.43;100.00;95274.06;5012403;28;20089;-62
2022/01/05 09:33:47;;;;;;;3.35;3.15;;;;;;;4.31;100.00;95268.16;5005213;28;20070;-61
2022/01/05 09:36:19;;;;;;;3.50;3.30;;;;;;;4.22;100.00;95280.22;5002020;28;20537;-61
2022/01/05 09:44:21;;;;;;;3.90;3.65;;;;;;;3.99;100.00;95290.09;5001329;28;20085;-61
2022/01/05 09:47:03;;;;;;;3.75;3.55;;;;;;;3.99;100.00;95303.13;5006796;28;20077;-61
2022/01/05 09:49:34;;;;;;;3.58;3.38;;;;;;;4.11;100.00;95296.00;5008650;28;20080;-62
2022/01/05 09:52:06;;;;;;;4.15;3.80;;;;;;;4.02;100.00;95313.25;5006383;28;20085;-61
2022/01/05 09:54:35;;;;;;;3.95;3.65;;;;;;;3.96;100.00;95320.81;5006018;28;20061;-61
2022/01/05 09:57:05;;;;;;;3.75;3.50;;;;;;;4.10;100.00;95320.44;5004577;28;20075;-61
2022/01/05 09:59:35;;;;;;;4.05;3.75;;;;;;;4.02;100.00;95313.25;5000275;28;20062;-63
2022/01/05 10:02:05;;;;;;;4.43;4.05;;;;;;;4.16;100.00;95342.56;5003831;28;20108;-62
2022/01/05 10:04:34;;;;;;;4.33;3.93;;;;;;;4.05;100.00;95346.91;5008058;28;20085;-61
2022/01/05 10:07:04;;;;;;;5.60;3.83;;;;;;;4.09;100.00;95338.81;5005466;28;20073;-60
2022/01/05 10:09:33;;;;;;;3.95;3.65;;;;;;;4.01;100.00;95342.91;5000666;28;20074;-58
2022/01/05 10:12:03;;;;;;;4.18;3.88;;;;;;;3.93;100.00;95334.13;5002191;28;20073;-59
2022/01/05 10:14:32;;;;;;;4.15;3.85;;;;;;;3.99;100.00;95336.19;5001216;28;20461;-60
2022/01/05 10:17:04;;;;;;;4.97;4.28;;;;;;;4.18;100.00;95341.47;5013136;28;20591;-61
2022/01/05 10:19:33;;;;;;;3.95;3.65;;;;;;;4.31;100.00;95341.22;5001988;28;20077;-61
2022/01/05 10:22:02;;;;;;;3.60;3.40;;;;;;;4.36;100.00;95346.03;5003004;28;20072;-60
2022/01/05 10:24:41;;;;;;;3.80;3.50;;;;;;;4.55;100.00;95340.06;4998313;28;20062;-61
2022/01/05 10:27:17;;;;;;;3.00;2.80;;;;;;;4.45;100.00;95350.47;5002910;28;20072;-61
2022/01/05 10:29:53;;;;;;;3.33;3.05;;;;;;;4.44;100.00;95351.41;5004701;28;20070;-62
2022/01/05 10:32:24;;;;;;;3.47;2.72;;;;;;;4.25;100.00;95357.41;5006582;28;20065;-61
2022/01/05 10:35:06;;;;;;;2.90;2.70;;;;;;;4.32;100.00;95355.09;5006849;28;20058;-59
2022/01/05 10:37:37;;;;;;;3.30;3.10;;;;;;;4.35;100.00;95358.28;5007022;28;20425;-58
2022/01/05 10:40:09;;;;;;;4.75;3.08;;;;;;;4.37;100.00;95373.78;5002219;28;20064;-61
2022/01/05 10:42:38;;;;;;;3.55;3.00;;;;;;;4.24;100.00;95389.69;5008412;28;20069;-58
2022/01/05 10:45:09;;;;;;;3.15;2.95;;;;;;;4.23;100.00;95378.44;5005388;28;20080;-59
2022/01/05 10:47:40;;;;;;;3.83;3.13;;;;;;;4.34;100.00;95385.34;5008923;28;20069;-60
2022/01/05 10:50:19;;;;;;;3.53;3.22;;;;;;;4.27;100.00;95377.22;5022703;28;20077;-61
2022/01/05 10:52:55;;;;;;;4.80;3.20;;;;;;;4.51;100.00;95383.88;5006407;28;20057;-62
2022/01/05 10:55:26;;;;;;;3.85;3.42;;;;;;;4.20;100.00;95385.69;5008699;28;20073;-58
2022/01/05 10:57:55;;;;;;;;;;;;;;;4.15;100.00;95387.88;5006524;28;20489;-58
2022/01/05 11:00:32;;;;;;;3.50;3.20;;;;;;;3.98;100.00;95374.47;5010887;28;19961;-60
2022/01/05 11:03:02;;;;;;;5.03;3.20;;;;;;;4.02;100.00;95407.16;5004986;28;20085;-60
2022/01/05 11:05:31;;;;;;;3.40;3.20;;;;;;;3.99;100.00;95389.19;5011288;28;20065;-58
2022/01/05 11:08:09;;;;;;;4.10;3.20;;;;;;;3.86;100.00;95388.56;5002552;28;20062;-57
2022/01/05 11:10:37;;;;;;;3.65;3.35;;;;;;;3.91;100.00;95399.44;5002800;28;20074;-60
2022/01/05 11:13:05;;;;;;;4.22;3.55;;;;;;;3.82;100.00;95408.06;5014160;28;20069;-61
2022/01/05 11:15:36;;;;;;;5.65;3.10;;;;;;;3.87;100.00;95418.91;5010518;28;20056;-57
2022/01/05 11:18:12;;;;;;;3.50;3.30;;;;;;;3.73;100.00;95414.03;5000956;28;20070;-59
2022/01/05 11:20:43;;;;;;;3.10;2.90;;;;;;;3.67;100.00;95420.56;5007520;28;20103;-61
2022/01/05 11:23:12;;;;;;;3.70;3.30;;;;;;;3.89;100.00;95427.44;5005161;28;20071;-61
2022/01/05 11:25:42;;;;;;;4.50;3.80;;;;;;;3.94;100.00;95437.47;5005967;28;20157;-60
2022/01/05 11:28:11;;;;;;;4.00;3.70;;;;;;;3.71;100.00;95435.00;5011616;28;20651;-61
2022/01/05 11:30:39;;;;;;;4.10;3.50;;;;;;;3.66;100.00;95441.56;5006061;28;20069;-60
2022/01/05 11:33:10;;;;;;;4.50;3.72;;;;;;;3.61;100.00;95456.75;5007408;28;20712;-60
2022/01/05 11:35:39;;;;;;;3.72;3.30;;;;;;;3.45;100.00;95465.84;5005729;28;20572;-61
2022/01/05 11:38:08;;;;;;;4.78;3.83;;;;;;;3.25;100.00;95472.66;5007422;28;20066;-62
2022/01/05 11:40:38;;;;;;;4.60;3.72;;;;;;;3.40;100.00;95475.78;5002647;28;20470;-58
2022/01/05 11:43:09;;;;;;;3.95;3.65;;;;;;;3.18;100.00;95479.31;5008255;28;20540;-57
2022/01/05 11:45:45;;;;;;;;;;;;;;;3.04;100.00;95470.00;5005145;28;20066;-60
2022/01/05 11:48:18;;;;;;;3.40;3.20;;;;;;;3.06;100.00;95473.34;5001514;28;19961;-60
2022/01/05 11:50:48;;;;;;;3.83;3.53;;;;;;;3.17;100.00;95469.84;5004510;28;20532;-59
2022/01/05 11:53:32;;;;;;;3.83;3.53;;;;;;;3.02;100.00;95477.09;5002092;28;20065;-59